Time;durP1;ratioP1;P1;durP2;ratioP2;P2;SDS_P1;SDS_P2;PMS_P1;PMS_P2;Temp;Humidity;BMP_temperature;BMP_pressure;BME280_temperature;BME280_humidity;BME280_pressure;Samples;Min_cycle;Max_cycle;Signal;HPM_P1;HPM_P2
2022/06/08 00:00:01;;;;;;;15.15;10.50;;;15.30;1.00;;;16.34;89.79;98962.16;5024161;27;118572;-71
2022/06/08 00:02:33;;;;;;;14.57;10.43;;;15.30;1.00;;;16.38;88.75;98973.19;5037056;27;121033;-71
2022/06/08 00:05:03;;;;;;;15.65;10.75;;;15.30;1.00;;;16.38;89.10;98966.91;5018050;28;130487;-72
2022/06/08 00:07:33;;;;;;;14.70;10.45;;;15.30;1.00;;;16.35;89.27;98969.22;4999830;28;130001;-71
2022/06/08 00:10:03;;;;;;;14.90;10.02;;;15.30;1.00;;;16.35;89.57;98971.94;5001993;28;121261;-72
2022/06/08 00:12:32;;;;;;;13.50;11.07;;;15.20;1.00;;;16.32;89.50;98969.16;5018111;28;121667;-72
2022/06/08 00:15:00;;;;;;;13.45;11.20;;;15.20;1.00;;;16.27;90.12;98972.97;5017878;28;130702;-72
2022/06/08 00:17:29;;;;;;;15.75;10.95;;;15.20;1.00;;;16.20;90.46;98966.56;4986908;28;128889;-71
2022/06/08 00:19:57;;;;;;;16.08;10.75;;;15.20;1.00;;;16.11;91.38;98964.88;5000352;28;120012;-71
2022/06/08 00:22:26;;;;;;;16.38;11.52;;;15.20;1.00;;;16.07;91.28;98966.72;5006693;28;118199;-71
2022/06/08 00:24:56;;;;;;;16.48;10.40;;;15.20;1.00;;;16.06;91.61;98956.13;5006018;28;129590;-72
2022/06/08 00:27:25;;;;;;;12.90;10.25;;;15.20;1.00;;;16.11;91.93;98966.78;5021259;28;130452;-72
2022/06/08 00:29:53;;;;;;;15.30;10.90;;;15.10;1.00;;;15.90;93.19;98954.28;5006271;28;118615;-72
2022/06/08 00:32:22;;;;;;;13.68;11.13;;;15.00;1.00;;;15.90;93.04;98953.50;5003101;28;119600;-72
2022/06/08 00:34:51;;;;;;;12.65;10.57;;;15.00;1.00;;;15.86;93.16;98958.09;5004820;28;129765;-71
2022/06/08 00:37:20;;;;;;;15.77;12.15;;;14.90;1.00;;;15.82;93.55;98958.81;5019591;28;129385;-73
2022/06/08 00:39:48;;;;;;;16.75;11.32;;;14.90;1.00;;;15.84;93.55;98950.25;5021626;28;120064;-69
2022/06/08 00:42:19;;;;;;;17.33;11.65;;;14.90;1.00;;;15.85;92.75;98956.50;5021210;28;119336;-71
2022/06/08 00:44:53;;;;;;;16.65;11.63;;;14.90;1.00;;;15.95;91.24;98953.19;5006082;28;130460;-70
2022/06/08 00:47:26;;;;;;;14.02;11.18;;;15.00;1.00;;;15.94;90.68;98949.69;5020766;28;129506;-70
2022/06/08 00:50:01;;;;;;;19.55;11.88;;;15.00;1.00;;;16.03;90.40;98957.66;5003065;28;119954;-71
2022/06/08 00:52:33;;;;;;;14.85;11.65;;;15.00;1.00;;;16.02;90.03;98955.28;5021149;28;119517;-71
2022/06/08 00:55:07;;;;;;;15.02;12.25;;;15.00;1.00;;;16.02;90.86;98950.59;5019307;28;130054;-72
2022/06/08 00:57:42;;;;;;;21.63;11.38;;;15.10;1.00;;;16.00;90.69;98941.94;5002529;28;130583;-74
2022/06/08 01:00:15;;;;;;;15.68;12.73;;;15.10;1.00;;;15.95;91.14;98948.50;5019822;28;122015;-73
2022/06/08 01:02:45;;;;;;;18.95;12.65;;;15.10;1.00;;;15.98;90.90;98939.56;5007013;27;122112;-71
2022/06/08 01:05:28;;;;;;;14.82;11.32;;;15.00;1.00;;;15.91;91.75;98933.16;5038948;27;129907;-71
2022/06/08 01:08:02;;;;;;;17.90;12.90;;;15.00;1.00;;;15.87;91.69;98938.56;5036466;27;129444;-72
2022/06/08 01:10:45;;;;;;;21.23;12.00;;;14.90;1.00;;;15.86;91.36;98939.72;5049638;27;119847;-73
2022/06/08 01:13:16;;;;;;;17.63;12.07;;;15.00;1.00;;;15.92;91.03;98940.22;5042997;27;119421;-71
2022/06/08 01:15:44;;;;;;;17.75;11.80;;;15.00;1.00;;;15.87;91.40;98937.78;5040709;27;130073;-71
2022/06/08 01:18:18;;;;;;;17.38;12.63;;;15.10;1.00;;;15.94;90.84;98946.94;5025899;27;128389;-72
2022/06/08 01:20:53;;;;;;;17.42;12.15;;;15.10;1.00;;;15.98;90.47;98933.31;5038229;27;119058;-73
2022/06/08 01:23:26;;;;;;;19.83;12.60;;;15.20;1.00;;;16.00;90.12;98941.94;5026564;27;118242;-73
2022/06/08 01:26:14;;;;;;;19.30;12.30;;;15.20;1.00;;;15.99;90.13;98940.38;5045965;27;130049;-72
2022/06/08 01:28:54;;;;;;;17.92;10.88;;;15.20;1.00;;;15.99;90.27;98935.69;5044098;27;130169;-72
2022/06/08 01:31:34;;;;;;;16.73;12.00;;;15.10;1.00;;;16.08;89.68;98943.69;5043315;27;119339;-71
2022/06/08 01:34:10;;;;;;;17.48;12.13;;;15.00;1.00;;;16.14;88.72;98946.91;5039574;27;119640;-71
2022/06/08 01:37:06;;;;;;;18.00;13.70;;;15.00;1.00;;;16.17;88.40;98941.53;5019264;27;128934;-72
2022/06/08 01:39:57;;;;;;;18.35;12.68;;;15.00;1.00;;;16.09;88.96;98945.25;5038939;27;129832;-73
2022/06/08 01:43:05;;;;;;;15.15;12.48;;;15.10;1.00;;;16.03;89.90;98941.22;5025557;27;119677;-70
2022/06/08 01:45:49;;;;;;;16.15;12.80;;;15.00;1.00;;;15.93;90.19;98939.09;5042722;27;118708;-72
2022/06/08 01:48:45;;;;;;;17.67;12.10;;;14.90;1.00;;;15.94;89.74;98937.91;5040172;27;129950;-70
2022/06/08 01:51:27;;;;;;;18.60;13.07;;;14.90;1.00;;;15.96;89.70;98932.91;5039972;27;129265;-73
2022/06/08 01:54:05;;;;;;;19.55;12.90;;;14.90;1.00;;;16.04;89.08;98931.88;5034122;27;122114;-69
2022/06/08 01:56:47;;;;;;;18.75;12.00;;;15.00;1.00;;;16.07;89.02;98942.09;5042563;27;121146;-72
2022/06/08 01:59:28;;;;;;;19.25;12.25;;;15.10;1.00;;;16.08;89.38;98932.75;5041599;27;129404;-72
2022/06/08 02:02:10;;;;;;;19.67;13.23;;;15.10;1.00;;;16.13;88.54;98943.38;5021615;27;129472;-72
2022/06/08 02:04:47;;;;;;;16.50;12.27;;;15.10;1.00;;;16.10;89.54;98935.13;5036287;27;119523;-71
2022/06/08 02:07:23;;;;;;;17.52;13.43;;;15.10;1.00;;;16.04;89.46;98937.34;5040449;27;120222;-72
2022/06/08 02:09:59;;;;;;;17.65;12.50;;;15.10;1.00;;;16.06;90.05;98934.25;5037606;27;129534;-72
2022/06/08 02:12:32;;;;;;;19.52;12.43;;;15.10;1.00;;;16.07;89.55;98933.88;5041610;27;131137;-70
2022/06/08 02:15:10;;;;;;;16.98;12.85;;;15.00;1.00;;;16.05;89.65;98930.72;5041960;27;119292;-72
2022/06/08 02:17:52;;;;;;;18.33;13.57;;;15.10;1.00;;;16.12;89.03;98933.59;5053780;27;120309;-71
2022/06/08 02:20:35;;;;;;;19.65;13.35;;;15.10;1.00;;;16.30;88.37;98933.16;5040470;27;129041;-71
2022/06/08 02:23:11;;;;;;;17.67;11.73;;;15.20;1.00;;;16.54;87.17;98938.25;5038303;27;130089;-71
2022/06/08 02:25:45;;;;;;;17.88;11.82;;;15.20;1.00;;;16.69;86.35;98935.78;5019464;27;118760;-73
2022/06/08 02:28:21;;;;;;;19.90;13.90;;;15.30;1.00;;;16.71;85.90;98936.19;5038508;27;119710;-71
2022/06/08 02:30:56;;;;;;;21.70;13.55;;;15.30;1.00;;;16.66;86.47;98936.50;5019899;27;129179;-72
2022/06/08 02:36:28;;;;;;;18.45;14.13;;;15.40;1.00;;;16.55;87.08;98933.56;5038303;27;120384;-72
2022/06/08 02:39:07;;;;;;;20.40;13.27;;;15.40;1.00;;;16.62;86.89;98932.91;5052229;27;119457;-72
2022/06/08 02:41:40;;;;;;;21.35;12.73;;;15.50;1.00;;;16.71;86.98;98936.19;5039278;27;130366;-72
2022/06/08 02:44:17;;;;;;;18.05;12.70;;;15.50;1.00;;;16.78;86.65;98939.06;5039178;27;128820;-72
2022/06/08 02:46:53;;;;;;;19.77;13.38;;;15.50;1.00;;;16.88;85.73;98946.66;5031897;27;123872;-72
2022/06/08 02:49:26;;;;;;;21.02;13.63;;;15.50;1.00;;;16.87;86.62;98936.84;5024149;27;120700;-72
2022/06/08 02:52:03;;;;;;;19.35;13.32;;;15.50;1.00;;;16.94;86.47;98938.13;5040971;27;129236;-72
2022/06/08 02:54:33;;;;;;;21.10;13.00;;;15.50;1.00;;;16.95;85.87;98945.19;5039031;27;129673;-72
2022/06/08 02:57:15;;;;;;;18.20;13.93;;;15.50;1.00;;;17.08;85.16;98932.88;5035528;27;119524;-72
2022/06/08 02:59:54;;;;;;;20.33;13.13;;;15.60;1.00;;;17.23;84.88;98940.16;5052785;27;119701;-71
2022/06/08 03:02:34;;;;;;;19.42;12.15;;;15.70;1.00;;;17.66;83.64;98936.41;5037287;27;129967;-70
2022/06/08 03:05:11;;;;;;;16.10;11.13;;;16.00;1.00;;;18.28;81.96;98934.00;5007144;27;129002;-72
2022/06/08 03:07:48;;;;;;;15.60;10.55;;;16.50;1.00;;;19.07;78.70;98939.41;5024256;27;119067;-71
2022/06/08 03:10:19;;;;;;;15.95;10.77;;;17.00;1.00;;;19.99;75.16;98945.00;5021355;27;119342;-72
2022/06/08 03:12:54;;;;;;;16.35;10.10;;;17.60;1.00;;;20.76;70.53;98942.81;5037680;27;130575;-72
2022/06/08 03:15:26;;;;;;;13.57;10.10;;;18.10;99.90;;;21.22;67.89;98934.88;5021173;27;129449;-71
2022/06/08 03:17:56;;;;;;;15.85;9.77;;;18.50;99.90;;;21.71;66.14;98938.72;5023929;27;119163;-72
2022/06/08 03:20:27;;;;;;;14.55;9.57;;;18.90;99.90;;;22.30;64.21;98946.34;5021810;27;119275;-74
2022/06/08 03:22:57;;;;;;;14.52;9.82;;;19.10;99.90;;;22.86;62.62;98938.06;5026230;27;129782;-72
2022/06/08 03:25:31;;;;;;;14.35;10.50;;;19.50;99.90;;;22.77;61.31;98934.97;5039600;27;129390;-73
2022/06/08 03:28:02;;;;;;;16.25;11.00;;;19.30;99.90;;;22.43;61.56;98932.84;5009565;27;118869;-71
2022/06/08 03:30:33;;;;;;;16.42;11.32;;;18.80;99.90;;;22.24;62.91;98943.19;5023727;27;120031;-71
2022/06/08 03:33:04;;;;;;;18.27;12.60;;;18.60;99.90;;;21.96;63.17;98938.63;5007089;27;128662;-71
2022/06/08 03:35:33;;;;;;;19.80;11.82;;;18.50;99.90;;;21.63;63.98;98937.16;5020622;27;130111;-72
2022/06/08 03:38:02;;;;;;;18.27;12.57;;;18.40;99.90;;;21.17;65.61;98934.09;5005947;27;120056;-71
2022/06/08 03:40:33;;;;;;;18.88;12.48;;;18.10;99.90;;;20.97;66.86;98935.72;5040590;27;121250;-72
2022/06/08 03:43:02;;;;;;;20.25;11.65;;;18.10;99.90;;;20.71;67.82;98937.69;5006882;27;128571;-70
2022/06/08 03:45:40;;;;;;;20.38;12.73;;;18.00;99.90;;;20.41;69.22;98941.59;5037112;27;130260;-72
2022/06/08 03:48:10;;;;;;;16.52;12.45;;;17.90;99.90;;;20.22;70.38;98936.41;5007149;27;118615;-72
2022/06/08 03:50:43;;;;;;;21.10;12.95;;;17.80;99.90;;;20.21;70.96;98934.84;5038633;27;119544;-73
2022/06/08 03:53:19;;;;;;;16.88;12.82;;;17.80;99.90;;;20.18;71.15;98930.91;5023428;27;129747;-72
2022/06/08 03:55:51;;;;;;;20.08;13.13;;;17.90;99.90;;;20.09;71.81;98928.50;5038647;27;129572;-71
2022/06/08 03:58:21;;;;;;;17.98;12.73;;;18.00;99.90;;;20.17;72.04;98928.53;5042242;27;119884;-71
2022/06/08 04:00:53;;;;;;;18.95;12.23;;;18.20;99.90;;;20.33;71.49;98931.72;5024232;27;120137;-71
2022/06/08 04:03:22;;;;;;;16.50;12.07;;;18.30;99.90;;;20.58;70.67;98920.72;5041306;27;130010;-71
2022/06/08 04:05:51;;;;;;;13.57;10.52;;;18.50;99.90;;;20.76;66.99;98929.03;5023611;27;129937;-70
2022/06/08 04:08:25;;;;;;;16.05;11.60;;;18.70;99.90;;;20.95;65.49;98921.53;5027136;27;119537;-74
2022/06/08 04:10:56;;;;;;;15.48;11.15;;;18.90;99.90;;;21.23;65.18;98925.44;5040889;27;119413;-72
2022/06/08 04:13:26;;;;;;;11.93;10.32;;;19.20;99.90;;;21.56;64.20;98931.69;5023689;27;129520;-71
2022/06/08 04:16:02;;;;;;;13.88;10.60;;;19.50;99.90;;;21.84;63.21;98931.56;5023639;27;129681;-72
2022/06/08 04:18:37;;;;;;;13.48;10.00;;;19.70;99.90;;;21.99;61.37;98932.28;5027047;27;120204;-73
2022/06/08 04:21:09;;;;;;;12.80;9.25;;;19.70;99.90;;;22.11;60.80;98933.81;5024397;27;119038;-73
2022/06/08 04:24:05;;;;;;;13.18;9.50;;;19.80;99.90;;;22.27;59.95;98931.34;5040642;27;129360;-72
2022/06/08 04:26:35;;;;;;;16.38;10.13;;;19.90;99.90;;;22.49;59.58;98941.50;5040326;27;129525;-69
2022/06/08 04:29:11;;;;;;;10.70;8.80;;;20.10;99.90;;;22.49;58.43;98935.97;5023245;27;122219;-69
2022/06/08 04:31:43;;;;;;;12.98;10.20;;;20.10;99.90;;;22.57;59.45;98921.69;5026864;27;121495;-71
2022/06/08 04:34:23;;;;;;;14.48;10.80;;;20.10;99.90;;;22.69;59.14;98933.44;5023156;27;130266;-73
2022/06/08 04:36:53;;;;;;;17.85;9.40;;;20.30;99.90;;;22.76;58.88;98934.16;5009399;27;129065;-70
2022/06/08 04:39:25;;;;;;;15.40;10.32;;;20.40;99.90;;;22.90;58.11;98926.94;5027154;27;118104;-73
2022/06/08 04:41:58;;;;;;;12.07;9.80;;;20.50;99.90;;;22.93;57.10;98926.91;5009952;27;118897;-71
2022/06/08 04:44:32;;;;;;;12.98;9.35;;;20.40;99.90;;;22.97;57.58;98927.66;5009502;27;129456;-71
2022/06/08 04:47:08;;;;;;;11.85;9.32;;;20.50;99.90;;;22.94;58.10;98928.47;5026732;27;129389;-71
2022/06/08 04:49:38;;;;;;;15.13;9.05;;;20.60;99.90;;;22.94;57.06;98922.94;5040114;27;120022;-71
2022/06/08 04:52:09;;;;;;;11.27;8.88;;;20.60;99.90;;;22.90;56.69;98927.72;5009843;27;119061;-73
2022/06/08 04:54:39;;;;;;;13.60;9.13;;;20.60;99.90;;;22.98;57.25;98923.72;5041687;27;129529;-72
2022/06/08 04:57:07;;;;;;;11.52;9.45;;;20.50;99.90;;;22.81;56.72;98930.16;5025866;27;128257;-72
2022/06/08 04:59:36;;;;;;;12.38;8.80;;;20.40;99.90;;;22.57;57.95;98929.97;5023235;27;120211;-73
2022/06/08 05:02:42;;;;;;;12.27;8.95;;;20.30;99.90;;;22.57;58.01;98927.19;5043180;27;119004;-75
2022/06/08 05:05:04;;;;;;;11.35;8.60;;;20.20;99.90;;;22.66;58.25;98923.19;5024455;27;130744;-72
2022/06/08 05:07:32;;;;;;;13.43;9.48;;;20.40;99.90;;;22.47;58.67;98930.03;5021219;27;130653;-74
2022/06/08 05:10:01;;;;;;;14.50;8.98;;;20.10;99.90;;;22.43;59.80;98927.31;5021820;27;120427;-71
2022/06/08 05:12:30;;;;;;;13.57;8.85;;;20.10;99.90;;;22.38;59.11;98925.00;5042476;27;120102;-72
2022/06/08 05:14:59;;;;;;;12.13;8.80;;;20.10;99.90;;;22.44;59.58;98926.13;5021361;27;129792;-72
2022/06/08 05:17:29;;;;;;;10.80;8.50;;;20.20;99.90;;;22.52;58.85;98924.88;5021485;27;129633;-73
2022/06/08 05:19:57;;;;;;;12.15;9.10;;;20.30;99.90;;;22.90;57.86;98921.41;5038727;27;122083;-72
2022/06/08 05:22:26;;;;;;;16.73;8.90;;;20.60;99.90;;;23.28;57.17;98925.03;5024468;27;121774;-70
2022/06/08 05:24:57;;;;;;;14.85;9.02;;;20.90;99.90;;;23.34;56.53;98922.56;5024410;27;129549;-70
2022/06/08 05:27:26;;;;;;;11.70;9.07;;;20.80;99.90;;;23.79;55.41;98922.44;5024507;27;128822;-72
2022/06/08 05:29:55;;;;;;;10.80;8.35;;;21.20;99.90;;;24.18;55.08;98923.16;5041558;27;120528;-70
2022/06/08 05:32:24;;;;;;;10.65;7.82;;;21.60;99.90;;;24.32;54.03;98924.94;5021799;27;120428;-70
2022/06/08 05:34:55;;;;;;;12.15;9.00;;;21.60;99.90;;;24.40;54.00;98927.19;5024268;27;130471;-70
2022/06/08 05:37:23;;;;;;;14.15;9.13;;;21.60;99.90;;;24.57;53.93;98916.25;5041873;27;129170;-72
2022/06/08 05:39:53;;;;;;;14.25;8.55;;;21.80;99.90;;;24.64;54.19;98916.16;5021461;27;119488;-73
2022/06/08 05:42:23;;;;;;;11.60;8.18;;;21.90;99.90;;;24.69;51.07;98918.44;5021441;27;119291;-72
2022/06/08 05:44:52;;;;;;;15.10;8.23;;;21.60;99.90;;;24.58;51.79;98912.28;5019817;27;130636;-72
2022/06/08 05:47:21;;;;;;;11.35;8.00;;;21.70;99.90;;;24.66;53.16;98915.72;5020955;27;129967;-70
2022/06/08 05:49:50;;;;;;;9.90;7.78;;;21.90;99.90;;;24.85;51.68;98925.31;5039603;27;119916;-70
2022/06/08 05:52:20;;;;;;;14.57;7.90;;;22.00;99.90;;;25.19;51.15;98927.09;5041216;27;118985;-75
2022/06/08 05:54:49;;;;;;;12.60;8.05;;;22.30;99.90;;;25.34;50.45;98925.66;5007327;27;130011;-71
2022/06/08 05:57:19;;;;;;;13.05;7.72;;;22.50;99.90;;;25.50;50.06;98935.28;5037728;27;129737;-74
2022/06/08 05:59:49;;;;;;;10.32;7.70;;;22.60;99.90;;;25.78;50.23;98928.38;5020922;27;119824;-73
2022/06/08 06:02:19;;;;;;;10.73;7.95;;;22.80;99.90;;;25.90;48.57;98930.50;4973614;27;1583008;-73
2022/06/08 06:04:50;;;;;;;11.45;7.45;;;22.80;99.90;;;25.69;47.77;98937.28;5038869;27;129544;-71
2022/06/08 06:07:21;;;;;;;11.98;6.90;;;22.40;99.90;;;25.67;48.08;98928.59;5030078;27;119075;-73
2022/06/08 06:10:03;;;;;;;10.95;7.35;;;22.50;99.90;;;25.27;48.48;98928.53;5026964;27;118669;-72
2022/06/08 06:12:34;;;;;;;12.40;6.93;;;22.00;99.90;;;25.26;49.06;98933.31;5044723;27;129660;-73
2022/06/08 06:15:05;;;;;;;12.85;6.75;;;22.20;99.90;;;25.42;49.61;98935.41;5022159;27;129587;-73
2022/06/08 06:17:34;;;;;;;11.52;8.00;;;22.40;99.90;;;25.43;49.53;98931.44;5024592;27;120300;-72
2022/06/08 06:20:07;;;;;;;11.70;7.75;;;22.40;99.90;;;25.19;49.83;98927.09;5024942;27;119461;-70
2022/06/08 06:23:03;;;;;;;12.25;7.93;;;22.50;99.90;;;25.26;49.84;98924.97;5018327;27;130583;-72
2022/06/08 06:25:50;;;;;;;13.25;7.72;;;22.40;99.90;;;25.29;49.20;98931.69;5039660;27;129356;-71
2022/06/08 06:28:51;;;;;;;12.52;7.70;;;22.20;99.90;;;25.28;50.04;98916.22;5016078;27;119016;-71
2022/06/08 06:32:02;;;;;;;11.10;7.25;;;22.40;99.90;;;25.34;49.98;98917.34;5043214;27;120181;-71
2022/06/08 06:34:35;;;;;;;12.23;7.28;;;22.60;99.90;;;25.73;49.45;98924.09;5037669;27;129845;-72
2022/06/08 06:37:04;;;;;;;14.90;7.10;;;22.90;99.90;;;25.95;49.03;98918.88;5038406;27;129302;-70
2022/06/08 06:39:35;;;;;;;11.32;7.80;;;23.00;99.90;;;26.19;48.46;98916.00;5021873;27;119790;-73
2022/06/08 06:42:16;;;;;;;12.43;8.38;;;23.20;99.90;;;26.29;48.07;98916.97;5024567;27;121369;-71
2022/06/08 06:44:47;;;;;;;10.68;7.90;;;23.30;99.90;;;26.12;48.57;98914.16;5021171;27;130286;-71
2022/06/08 06:47:36;;;;;;;10.38;7.20;;;23.10;99.90;;;26.12;48.38;98919.72;5023349;27;129246;-73
2022/06/08 06:50:17;;;;;;;8.90;6.68;;;23.20;99.90;;;26.17;47.90;98919.19;5038129;27;120119;-72
2022/06/08 06:52:46;;;;;;;8.50;6.53;;;23.10;99.90;;;26.26;47.38;98913.06;5021562;27;119961;-72
2022/06/08 06:55:22;;;;;;;9.50;7.15;;;23.10;99.90;;;26.41;46.98;98907.91;5041715;27;129694;-72
2022/06/08 06:57:52;;;;;;;13.57;6.70;;;23.40;99.90;;;26.53;47.76;98900.91;5020899;27;129497;-73
2022/06/08 07:00:25;;;;;;;9.52;6.45;;;23.70;99.90;;;26.64;46.09;98903.41;5021278;27;119553;-72
2022/06/08 07:02:55;;;;;;;13.25;6.82;;;23.70;99.90;;;26.76;46.98;98911.09;5024076;27;119267;-71
2022/06/08 07:05:27;;;;;;;9.02;6.05;;;23.90;99.90;;;26.68;45.93;98906.94;5037858;27;130953;-70
2022/06/08 07:07:56;;;;;;;12.57;5.97;;;23.60;99.90;;;26.62;46.52;98905.88;5037637;27;130245;-72
2022/06/08 07:10:28;;;;;;;12.70;5.65;;;23.70;99.90;;;26.78;45.61;98908.66;5057974;27;119072;-70
2022/06/08 07:12:57;;;;;;;8.98;5.55;;;23.90;99.90;;;26.93;45.50;98897.94;5041055;27;119038;-74
2022/06/08 07:15:26;;;;;;;10.90;5.80;;;24.20;99.90;;;27.01;43.90;98904.09;5037882;27;130171;-70
2022/06/08 07:17:57;;;;;;;10.38;5.55;;;24.20;99.90;;;26.97;45.67;98897.84;5057752;27;130394;-74
2022/06/08 07:20:28;;;;;;;10.40;5.85;;;24.30;99.90;;;26.98;45.01;98900.19;5041574;27;118140;-72
2022/06/08 07:22:57;;;;;;;9.45;5.30;;;24.30;99.90;;;27.08;45.21;98899.13;5041150;27;118435;-72
2022/06/08 07:25:27;;;;;;;12.25;5.50;;;24.30;99.90;;;27.40;44.85;98907.84;5037391;27;129574;-69
2022/06/08 07:27:56;;;;;;;12.05;5.63;;;24.70;99.90;;;27.50;44.18;98903.97;5037380;27;129467;-76
2022/06/08 07:30:25;;;;;;;10.27;4.75;;;24.80;99.90;;;27.45;43.03;98898.94;5038871;27;120029;-72
2022/06/08 07:32:53;;;;;;;8.23;4.07;;;24.70;99.90;;;27.41;42.92;98899.06;5038908;27;119972;-73
2022/06/08 07:35:22;;;;;;;13.10;4.90;;;24.70;99.90;;;27.32;42.20;98895.34;5047015;27;130573;-75
2022/06/08 07:37:51;;;;;;;9.95;4.25;;;24.60;99.90;;;27.51;43.61;98902.75;5044071;27;129288;-73
2022/06/08 07:40:19;;;;;;;11.63;4.15;;;24.90;99.90;;;27.38;41.96;98899.16;5043888;27;118935;-72
2022/06/08 07:42:50;;;;;;;7.47;4.18;;;24.80;99.90;;;27.34;42.85;98892.91;5059126;27;119720;-73
2022/06/08 07:45:18;;;;;;;10.38;4.28;;;25.00;99.90;;;27.48;43.89;98898.06;5058987;27;130047;-72
2022/06/08 07:50:33;;;;;;;9.40;4.25;;;25.10;99.90;;;27.72;42.71;98901.38;5059099;27;119650;-72
2022/06/08 07:53:01;;;;;;;7.70;4.20;;;25.20;99.90;;;27.79;42.24;98894.78;5057146;27;120709;-71
2022/06/08 07:55:30;;;;;;;7.18;3.33;;;25.30;99.90;;;27.73;42.40;98902.16;5026435;27;128527;-73
2022/06/08 07:58:02;;;;;;;8.98;4.63;;;25.20;99.90;;;27.69;42.64;98909.81;5040373;27;129634;-73
2022/06/08 08:00:31;;;;;;;8.15;4.20;;;25.20;99.90;;;27.81;42.32;98897.91;5040602;27;120404;-71
2022/06/08 08:02:59;;;;;;;9.40;4.38;;;25.40;99.90;;;28.09;42.54;98898.31;5047392;27;119566;-71
2022/06/08 08:05:27;;;;;;;5.72;3.90;;;25.70;99.90;;;28.10;41.31;98897.84;5053578;27;129805;-71
2022/06/08 08:07:56;;;;;;;7.35;4.45;;;25.40;99.90;;;28.08;41.83;98899.53;5023059;27;130225;-74
2022/06/08 08:10:27;;;;;;;9.43;3.72;;;25.50;99.90;;;28.31;40.90;98890.03;5023642;27;118159;-70
2022/06/08 08:12:56;;;;;;;7.85;4.07;;;25.70;99.90;;;28.36;41.34;98891.50;5038211;27;119625;-72
2022/06/08 08:15:27;;;;;;;8.02;4.50;;;25.70;99.90;;;28.60;39.77;98897.53;5037398;27;129784;-74
2022/06/08 08:17:56;;;;;;;7.03;3.83;;;26.00;99.90;;;28.69;39.44;98890.03;5036447;27;129927;-72
2022/06/08 08:20:28;;;;;;;8.10;4.00;;;26.00;99.90;;;28.86;39.86;98895.47;5038034;27;119852;-71
2022/06/08 08:22:57;;;;;;;8.13;3.88;;;26.20;99.90;;;28.83;40.38;98896.38;5038160;27;120479;-74
2022/06/08 08:25:28;;;;;;;5.05;3.80;;;26.10;99.90;;;28.80;39.41;98895.25;5037910;27;130381;-70
2022/06/08 08:27:58;;;;;;;8.30;4.32;;;26.10;99.90;;;28.77;39.20;98875.84;5037511;27;129849;-73
2022/06/08 08:30:31;;;;;;;8.68;4.00;;;26.00;99.90;;;28.87;39.77;98891.41;5038474;27;119853;-73
2022/06/08 08:32:59;;;;;;;6.43;3.97;;;26.00;99.90;;;28.83;39.24;98891.56;5038993;27;119647;-72
2022/06/08 08:35:28;;;;;;;8.48;3.72;;;26.10;99.90;;;28.80;38.79;98891.69;5041101;27;129179;-72
2022/06/08 08:37:59;;;;;;;6.28;4.00;;;26.20;99.90;;;28.83;39.45;98890.78;5040506;27;129710;-73
2022/06/08 08:40:47;;;;;;;6.82;4.18;;;26.20;99.90;;;29.03;40.32;98888.47;5040519;27;119901;-73
2022/06/08 08:43:20;;;;;;;6.82;4.10;;;26.50;99.90;;;29.14;39.34;98882.50;5038704;27;118876;-70
2022/06/08 08:46:24;;;;;;;9.25;4.47;;;26.40;99.90;;;29.12;39.62;98878.59;5036618;27;128745;-75
2022/06/08 08:48:59;;;;;;;8.50;4.35;;;26.40;99.90;;;29.00;38.93;98883.78;5041517;27;129940;-73
2022/06/08 08:51:35;;;;;;;6.72;4.07;;;26.00;99.90;;;28.72;39.54;98879.19;5041738;27;119853;-74
2022/06/08 08:54:22;;;;;;;5.15;3.58;;;25.90;99.90;;;28.43;39.50;98880.09;5026790;27;119393;-73
2022/06/08 08:56:54;;;;;;;5.95;3.95;;;25.60;99.90;;;28.93;39.01;98872.09;5042163;27;128902;-72
2022/06/08 08:59:31;;;;;;;6.05;3.72;;;26.10;99.90;;;29.23;38.56;98873.44;5041538;27;130725;-71
2022/06/08 09:02:01;;;;;;;5.68;3.67;;;26.40;99.90;;;29.22;38.65;98869.88;5041572;27;118981;-71
2022/06/08 09:04:33;;;;;;;7.07;4.07;;;26.40;99.90;;;29.64;38.94;98867.94;5043755;27;119125;-73
2022/06/08 09:07:15;;;;;;;6.85;3.90;;;26.80;99.90;;;29.93;37.36;98870.47;5041146;27;130199;-73
2022/06/08 09:09:45;;;;;;;5.60;3.40;;;26.90;99.90;;;30.09;36.02;98867.44;5039114;27;129674;-74
2022/06/08 09:12:15;;;;;;;6.85;3.50;;;27.00;99.90;;;30.33;35.81;98861.28;5042639;27;119896;-75
2022/06/08 09:14:52;;;;;;;5.63;2.90;;;27.30;99.90;;;30.06;34.73;98865.56;5042707;27;119487;-74
2022/06/08 09:17:33;;;;;;;5.43;3.25;;;26.90;99.90;;;29.84;36.99;98859.22;5039977;27;130654;-74
2022/06/08 09:20:05;;;;;;;5.63;3.22;;;26.60;99.90;;;29.53;36.06;98857.16;5026023;27;128531;-75
2022/06/08 09:22:34;;;;;;;5.22;3.20;;;26.40;99.90;;;29.98;36.67;98858.69;5041229;27;120652;-72
2022/06/08 09:25:24;;;;;;;6.72;3.90;;;26.90;99.90;;;30.26;36.73;98861.56;5040764;27;119824;-72
2022/06/08 09:27:55;;;;;;;6.70;3.05;;;27.30;99.90;;;30.73;35.12;98866.06;5042488;27;128883;-76
2022/06/08 09:30:26;;;;;;;8.63;3.20;;;27.60;99.90;;;31.20;34.01;98858.47;5040253;27;130005;-75
2022/06/08 09:32:59;;;;;;;4.50;3.13;;;27.90;99.90;;;31.29;31.98;98868.88;5041891;27;119257;-71
2022/06/08 09:35:32;;;;;;;5.13;3.10;;;27.60;99.90;;;30.95;34.13;98865.13;5022531;27;118536;-73
2022/06/08 09:38:06;;;;;;;4.65;3.20;;;27.50;99.90;;;30.99;33.54;98860.97;5039524;27;129970;-72
2022/06/08 09:40:42;;;;;;;4.75;3.20;;;27.40;99.90;;;31.04;33.82;98845.56;5040399;27;129701;-71
2022/06/08 09:43:44;;;;;;;5.03;2.97;;;27.80;99.90;;;31.17;32.74;98857.38;5040642;27;119935;-75
2022/06/08 09:46:20;;;;;;;7.50;2.83;;;27.90;99.90;;;30.98;31.63;98847.44;5040515;27;120382;-80
2022/06/08 09:52:16;;;;;;;6.90;2.97;;;27.70;99.90;;;30.92;32.25;98852.84;4993960;27;128871;-72
2022/06/08 09:55:02;;;;;;;5.15;3.22;;;27.90;99.90;;;30.39;34.44;98848.28;5039909;27;119128;-75
2022/06/08 09:57:40;;;;;;;;;;;27.30;99.90;;;30.14;34.27;98851.25;5039880;27;118993;-72
2022/06/08 10:00:28;;;;;;;4.30;2.60;;;27.20;99.90;;;30.76;34.05;98844.72;5040280;27;130806;-74
2022/06/08 10:03:25;;;;;;;4.68;2.80;;;27.60;99.90;;;31.03;31.57;98841.19;5039557;27;130403;-72
2022/06/08 10:06:07;;;;;;;5.18;2.83;;;27.80;99.90;;;31.69;32.02;98848.25;5039934;27;119775;-72
2022/06/08 10:08:52;;;;;;;4.65;2.30;;;28.30;99.90;;;32.22;31.04;98838.53;5040316;27;119526;-73
2022/06/08 10:11:39;;;;;;;3.90;2.40;;;28.70;99.80;;;32.27;31.17;98848.34;5039648;27;130263;-74
2022/06/08 10:14:31;;;;;;;4.75;2.83;;;28.70;99.90;;;32.04;29.59;98834.56;5039430;27;129661;-75
2022/06/08 10:17:11;;;;;;;4.55;2.92;;;28.60;97.30;;;31.71;30.30;98832.53;5040085;27;120642;-73
2022/06/08 10:20:04;;;;;;;8.93;3.30;;;27.70;98.40;;;31.36;32.30;98838.50;5040139;27;119899;-72
2022/06/08 10:22:39;;;;;;;5.68;3.10;;;27.70;99.90;;;31.83;32.70;98833.56;5040309;27;130807;-74
2022/06/08 10:25:18;;;;;;;6.15;2.80;;;28.30;99.90;;;31.22;31.72;98836.34;5041578;27;129634;-73
2022/06/08 10:27:54;;;;;;;3.92;2.53;;;27.90;99.90;;;31.26;31.40;98834.16;5041336;27;119294;-74
2022/06/08 10:30:31;;;;;;;6.50;2.80;;;27.90;99.90;;;31.49;31.57;98841.13;5038879;27;120195;-72
2022/06/08 10:33:06;;;;;;;4.97;2.60;;;28.30;99.90;;;31.77;31.39;98832.63;5054466;27;130244;-71
2022/06/08 10:35:43;;;;;;;8.85;3.20;;;28.50;97.60;;;31.63;31.69;98822.09;5038305;27;130229;-72
2022/06/08 10:38:21;;;;;;;4.03;2.70;;;28.10;99.90;;;32.07;31.00;98827.22;5041503;27;118859;-74
2022/06/08 10:40:54;;;;;;;4.65;2.90;;;28.40;99.90;;;31.93;30.27;98822.28;5039651;27;119532;-74
2022/06/08 10:43:27;;;;;;;9.40;2.55;;;28.40;97.30;;;32.21;30.72;98831.38;5039899;27;130137;-73
2022/06/08 10:46:01;;;;;;;4.30;2.40;;;28.90;97.40;;;32.39;29.84;98819.28;5024591;27;128407;-74